Time;durP1;ratioP1;P1;durP2;ratioP2;P2;SDS_P1;SDS_P2;PMS_P1;PMS_P2;Temp;Humidity;BMP_temperature;BMP_pressure;BME280_temperature;BME280_humidity;BME280_pressure;Samples;Min_cycle;Max_cycle;Signal;HPM_P1;HPM_P2
2022/11/08 00:02:24;;;;;;;12.82;3.17;;;12.60;99.90;;;;;;5082361;28;20059;-68
2022/11/08 00:04:49;;;;;;;12.13;3.25;;;12.60;99.90;;;;;;5082775;28;20040;-68
2022/11/08 00:15:32;;;;;;;19.50;3.70;;;12.60;99.90;;;;;;5080531;28;20131;-65
2022/11/08 00:17:57;;;;;;;17.08;3.80;;;12.60;99.90;;;;;;5065212;28;20505;-68
2022/11/08 00:20:23;;;;;;;12.98;3.67;;;12.60;99.90;;;;;;5098794;28;20040;-67
2022/11/08 00:22:49;;;;;;;14.40;3.28;;;12.60;99.90;;;;;;5079698;28;20059;-68
2022/11/08 00:25:15;;;;;;;12.50;3.65;;;12.50;99.90;;;;;;5077940;28;20046;-67
2022/11/08 00:27:41;;;;;;;12.82;3.53;;;12.50;99.90;;;;;;5078236;28;20036;-64
2022/11/08 00:30:07;;;;;;;16.52;3.85;;;12.50;99.90;;;;;;5097777;28;20040;-68
2022/11/08 00:32:33;;;;;;;15.18;3.65;;;12.50;99.90;;;;;;5098074;28;20051;-68
2022/11/08 00:34:58;;;;;;;15.00;3.80;;;12.50;99.90;;;;;;5080926;28;20050;-68
2022/11/08 00:37:24;;;;;;;16.38;3.72;;;12.50;99.90;;;;;;5078546;28;20039;-68
2022/11/08 00:39:50;;;;;;;10.73;3.28;;;12.50;99.90;;;;;;5069652;28;20117;-68
2022/11/08 00:42:16;;;;;;;17.23;3.70;;;12.50;99.90;;;;;;5083991;28;20047;-68
2022/11/08 00:44:41;;;;;;;13.00;3.25;;;12.50;99.90;;;;;;5071359;28;20055;-67
2022/11/08 00:47:07;;;;;;;16.83;4.22;;;12.50;99.90;;;;;;5075851;28;20134;-67
2022/11/08 00:49:33;;;;;;;17.10;3.47;;;12.50;99.90;;;;;;5096981;28;20048;-68
2022/11/08 00:51:59;;;;;;;13.50;3.53;;;12.50;99.90;;;;;;5078916;28;20127;-68
2022/11/08 00:54:25;;;;;;;20.23;4.43;;;12.50;99.90;;;;;;5095303;28;20039;-68
2022/11/08 00:56:50;;;;;;;14.20;3.88;;;12.50;99.90;;;;;;5078156;28;20031;-68
2022/11/08 00:59:18;;;;;;;16.83;3.72;;;12.50;99.90;;;;;;5093203;28;20044;-68
2022/11/08 01:01:45;;;;;;;14.25;3.38;;;12.50;99.90;;;;;;5095149;28;20059;-65
2022/11/08 01:04:14;;;;;;;19.27;3.50;;;12.50;99.90;;;;;;5095458;28;20074;-67
2022/11/08 01:06:40;;;;;;;17.45;3.58;;;12.50;99.90;;;;;;5077732;28;20044;-67
2022/11/08 01:09:07;;;;;;;14.63;3.67;;;12.50;99.90;;;;;;5079456;28;20043;-68
2022/11/08 01:11:32;;;;;;;14.00;3.35;;;12.50;99.90;;;;;;5077185;28;20047;-68
2022/11/08 01:14:00;;;;;;;18.77;3.75;;;12.50;99.90;;;;;;5086295;28;20071;-67
2022/11/08 01:16:29;;;;;;;18.40;3.60;;;12.50;99.90;;;;;;5076230;28;20490;-68
2022/11/08 01:18:56;;;;;;;14.70;3.90;;;12.50;99.90;;;;;;5076169;28;20075;-67
2022/11/08 01:21:23;;;;;;;17.55;3.70;;;12.50;99.90;;;;;;5095870;28;20553;-67
2022/11/08 01:23:49;;;;;;;14.65;3.72;;;12.50;99.90;;;;;;5080420;28;20055;-68
2022/11/08 01:26:21;;;;;;;12.70;3.30;;;12.50;99.90;;;;;;5094364;28;20050;-68
2022/11/08 01:28:47;;;;;;;14.15;3.35;;;12.50;99.90;;;;;;5077780;28;20043;-64
2022/11/08 01:31:16;;;;;;;17.30;3.10;;;12.50;99.90;;;;;;5097010;28;20045;-65
2022/11/08 01:33:42;;;;;;;11.18;3.65;;;12.50;99.90;;;;;;5077025;28;20048;-68
2022/11/08 01:36:10;;;;;;;13.10;2.90;;;12.50;99.90;;;;;;5096512;28;20040;-68
2022/11/08 01:38:36;;;;;;;11.35;3.17;;;12.50;99.90;;;;;;5082571;28;20043;-68
2022/11/08 01:41:02;;;;;;;12.95;3.40;;;12.50;99.90;;;;;;5077327;28;20581;-66
2022/11/08 01:43:45;;;;;;;19.63;3.72;;;12.50;99.90;;;;;;5078930;28;20479;-68
2022/11/08 01:46:31;;;;;;;16.80;3.50;;;12.50;99.90;;;;;;5074960;28;20051;-66
2022/11/08 01:49:14;;;;;;;14.82;3.75;;;12.40;99.90;;;;;;5076583;28;20040;-68
2022/11/08 01:51:59;;;;;;;11.20;3.10;;;12.40;99.90;;;;;;5096732;28;20055;-68
2022/11/08 01:54:37;;;;;;;14.93;3.38;;;12.40;99.90;;;;;;5060602;28;20052;-67
2022/11/08 01:57:07;;;;;;;12.98;3.17;;;12.40;99.90;;;;;;5093833;28;20080;-68
2022/11/08 01:59:38;;;;;;;13.23;2.88;;;12.40;99.90;;;;;;5077633;28;20123;-68
2022/11/08 02:07:59;;;;;;;11.82;3.08;;;12.30;99.90;;;;;;4927747;28;20039;-67
2022/11/08 02:10:33;;;;;;;17.08;3.63;;;12.30;99.90;;;;;;4925740;29;20319;-68
2022/11/08 02:12:58;;;;;;;14.43;3.95;;;12.30;99.90;;;;;;4925368;29;20062;-68
2022/11/08 02:15:25;;;;;;;14.90;3.47;;;12.30;99.90;;;;;;4902086;29;20224;-68
2022/11/08 02:17:52;;;;;;;9.13;2.97;;;12.30;99.90;;;;;;4926414;29;20050;-65
2022/11/08 02:20:19;;;;;;;11.25;3.00;;;12.30;99.90;;;;;;4914105;29;20043;-64
2022/11/08 02:22:57;;;;;;;9.52;3.20;;;12.30;99.90;;;;;;4909312;29;20429;-68
2022/11/08 02:25:23;;;;;;;9.15;2.72;;;12.30;99.90;;;;;;4928357;29;20649;-68
2022/11/08 02:27:49;;;;;;;15.90;2.83;;;12.20;99.90;;;;;;4928336;29;20065;-68
2022/11/08 02:30:15;;;;;;;12.40;3.05;;;12.30;99.90;;;;;;4910084;29;20047;-69
2022/11/08 02:32:41;;;;;;;13.50;3.30;;;12.20;99.90;;;;;;4931929;29;20880;-68
2022/11/08 02:35:15;;;;;;;10.75;2.78;;;12.20;99.90;;;;;;4903404;29;20553;-68
2022/11/08 02:37:41;;;;;;;12.77;3.30;;;12.20;99.90;;;;;;4910924;29;20056;-69
2022/11/08 02:40:07;;;;;;;11.00;3.28;;;12.20;99.90;;;;;;4914295;29;20054;-68
2022/11/08 02:42:36;;;;;;;13.65;2.88;;;12.20;99.90;;;;;;4931022;29;20553;-65
2022/11/08 02:45:02;;;;;;;13.95;3.28;;;12.20;99.90;;;;;;4904848;29;20529;-68
2022/11/08 02:47:28;;;;;;;13.02;2.95;;;12.10;99.90;;;;;;4915651;29;20497;-68
2022/11/08 02:49:54;;;;;;;10.75;2.67;;;12.10;99.90;;;;;;4931790;29;20053;-68
2022/11/08 02:52:19;;;;;;;11.43;3.10;;;12.10;99.90;;;;;;4928138;29;20056;-68
2022/11/08 02:54:45;;;;;;;9.05;2.90;;;12.00;99.90;;;;;;4927300;29;20044;-68
2022/11/08 02:57:11;;;;;;;14.55;3.22;;;12.00;99.90;;;;;;4927193;29;20110;-68
2022/11/08 02:59:37;;;;;;;10.73;2.70;;;12.00;99.90;;;;;;4903175;29;20060;-64
2022/11/08 03:02:03;;;;;;;11.13;3.42;;;11.90;99.90;;;;;;4916064;29;20078;-68
2022/11/08 03:04:28;;;;;;;8.98;2.80;;;11.90;99.90;;;;;;4898820;29;20068;-67
2022/11/08 03:06:54;;;;;;;13.60;3.33;;;11.90;99.90;;;;;;4935414;28;20134;-68
2022/11/08 03:09:20;;;;;;;9.85;2.78;;;11.80;99.90;;;;;;4939659;28;20047;-68
2022/11/08 03:11:46;;;;;;;11.38;2.90;;;11.80;99.90;;;;;;4944451;28;20118;-67
2022/11/08 03:14:12;;;;;;;10.75;3.08;;;11.80;99.90;;;;;;4948424;28;20569;-68
2022/11/08 03:16:37;;;;;;;13.05;2.85;;;11.80;99.90;;;;;;4941954;28;20130;-68
2022/11/08 03:19:03;;;;;;;10.20;2.95;;;11.80;99.90;;;;;;4944105;28;20073;-68
2022/11/08 03:21:29;;;;;;;12.68;3.22;;;11.80;99.90;;;;;;4922708;29;20106;-64
2022/11/08 03:23:55;;;;;;;13.48;3.20;;;11.80;99.90;;;;;;4937974;28;20409;-68
2022/11/08 03:26:21;;;;;;;14.98;3.40;;;11.80;99.90;;;;;;4945174;28;20048;-67
2022/11/08 03:28:47;;;;;;;11.48;3.20;;;11.70;99.90;;;;;;4938549;28;20051;-68
2022/11/08 03:31:12;;;;;;;11.60;3.08;;;11.70;99.90;;;;;;4924908;28;20110;-68
2022/11/08 03:33:38;;;;;;;15.18;2.92;;;11.70;99.90;;;;;;4946602;28;20055;-64
2022/11/08 03:36:04;;;;;;;11.48;3.38;;;11.70;99.90;;;;;;4936574;28;20043;-68
2022/11/08 03:38:30;;;;;;;16.42;3.90;;;11.70;99.90;;;;;;4936145;28;20486;-66
2022/11/08 03:40:56;;;;;;;17.05;3.78;;;11.70;99.90;;;;;;4937122;28;20130;-67
2022/11/08 03:43:21;;;;;;;12.63;3.10;;;11.60;99.90;;;;;;4920250;29;20047;-68
2022/11/08 03:45:47;;;;;;;13.93;3.15;;;11.60;99.90;;;;;;4941105;28;20066;-68
2022/11/08 03:48:13;;;;;;;14.85;3.13;;;11.60;99.90;;;;;;4915322;28;20047;-68
2022/11/08 03:50:39;;;;;;;11.32;2.88;;;11.60;99.90;;;;;;4927528;29;20114;-65
2022/11/08 03:53:04;;;;;;;13.20;3.10;;;11.60;99.90;;;;;;4921972;28;20482;-68
2022/11/08 03:55:30;;;;;;;10.85;3.40;;;11.50;99.90;;;;;;4941676;28;20061;-67
2022/11/08 03:57:56;;;;;;;14.88;3.50;;;11.50;99.90;;;;;;4938736;28;20055;-68
2022/11/08 04:00:26;;;;;;;11.35;2.90;;;11.50;99.90;;;;;;4916783;28;20058;-68
2022/11/08 04:02:52;;;;;;;10.38;2.97;;;11.50;99.90;;;;;;4938798;28;20065;-66
2022/11/08 04:05:18;;;;;;;13.70;3.10;;;11.40;99.90;;;;;;4940241;28;20446;-68
2022/11/08 04:07:44;;;;;;;8.82;3.10;;;11.40;99.90;;;;;;4921880;28;20680;-68
2022/11/08 04:10:11;;;;;;;10.32;3.28;;;11.40;99.90;;;;;;4920925;29;20044;-68
2022/11/08 04:15:28;;;;;;;14.18;3.30;;;11.40;99.90;;;;;;4904278;29;20067;-68
2022/11/08 04:23:29;;;;;;;10.98;3.15;;;11.30;99.90;;;;;;4924186;29;20055;-68
2022/11/08 04:26:00;;;;;;;9.75;2.78;;;11.30;99.90;;;;;;4914120;29;20387;-68
2022/11/08 04:28:31;;;;;;;13.00;3.30;;;11.20;99.90;;;;;;4922601;29;20083;-66
2022/11/08 04:30:59;;;;;;;11.57;3.70;;;11.20;99.90;;;;;;4904533;29;20450;-68
2022/11/08 04:33:25;;;;;;;14.18;3.00;;;11.20;99.90;;;;;;4913507;29;20131;-68
2022/11/08 04:35:52;;;;;;;13.18;3.60;;;11.20;99.90;;;;;;4922619;29;20048;-68
2022/11/08 04:38:18;;;;;;;13.90;3.17;;;11.20;99.90;;;;;;4922564;29;20044;-67
2022/11/08 04:40:44;;;;;;;9.20;2.97;;;11.10;99.90;;;;;;4914407;29;20474;-67
2022/11/08 04:43:10;;;;;;;10.95;3.63;;;11.10;99.90;;;;;;4912560;29;20129;-68
2022/11/08 04:45:36;;;;;;;9.27;2.80;;;11.10;99.90;;;;;;4913735;29;20086;-68
2022/11/08 04:48:02;;;;;;;11.75;3.00;;;11.10;99.90;;;;;;4915221;29;20131;-67
2022/11/08 04:50:28;;;;;;;14.88;3.25;;;11.10;99.90;;;;;;4905369;29;20060;-68
2022/11/08 04:52:55;;;;;;;12.90;3.60;;;11.10;99.90;;;;;;4913796;29;20059;-68
2022/11/08 04:55:22;;;;;;;13.70;3.38;;;11.10;99.90;;;;;;4917363;29;20106;-68
2022/11/08 04:57:48;;;;;;;11.95;2.78;;;11.10;99.90;;;;;;4921580;29;20195;-68
2022/11/08 05:00:15;;;;;;;11.43;3.40;;;11.10;99.90;;;;;;4921430;29;20410;-65
2022/11/08 05:02:41;;;;;;;10.63;2.70;;;11.10;99.90;;;;;;4912456;29;20237;-64
2022/11/08 05:05:07;;;;;;;11.88;3.20;;;11.00;99.90;;;;;;4920310;29;20187;-68
2022/11/08 05:07:33;;;;;;;11.30;3.30;;;11.10;99.90;;;;;;4922235;29;20521;-68
2022/11/08 05:09:59;;;;;;;10.30;3.20;;;11.10;99.90;;;;;;4913030;29;20044;-68
2022/11/08 05:12:25;;;;;;;14.52;3.50;;;11.10;99.90;;;;;;4907888;29;20532;-68
2022/11/08 05:14:51;;;;;;;11.48;3.00;;;11.10;99.90;;;;;;4910139;29;20052;-66
2022/11/08 05:17:16;;;;;;;10.80;2.95;;;11.10;99.90;;;;;;4906453;29;20059;-68
2022/11/08 05:25:11;;;;;;;12.43;3.38;;;11.10;99.90;;;;;;4918833;29;20071;-68
2022/11/08 05:27:37;;;;;;;7.18;2.55;;;11.10;99.90;;;;;;4906152;29;20151;-67
2022/11/08 05:30:03;;;;;;;11.32;2.78;;;11.10;99.90;;;;;;4908866;29;20111;-68
2022/11/08 05:32:29;;;;;;;12.63;3.03;;;11.10;99.90;;;;;;4915321;29;20056;-65
2022/11/08 05:34:54;;;;;;;12.18;3.00;;;11.10;99.90;;;;;;4917263;29;20062;-64
2022/11/08 05:37:20;;;;;;;9.82;2.70;;;11.10;99.90;;;;;;4905761;29;20048;-67
2022/11/08 05:39:46;;;;;;;11.05;3.17;;;11.00;99.90;;;;;;4904222;29;20032;-67
2022/11/08 05:42:11;;;;;;;9.00;2.80;;;11.00;99.90;;;;;;4897177;29;20051;-68
2022/11/08 05:44:37;;;;;;;7.05;2.50;;;11.00;99.90;;;;;;4904243;29;20059;-68
2022/11/08 05:47:03;;;;;;;8.50;2.72;;;11.00;99.90;;;;;;4918120;29;20048;-68
2022/11/08 05:49:29;;;;;;;11.23;2.60;;;11.00;99.90;;;;;;4910208;29;20394;-67
2022/11/08 05:51:55;;;;;;;9.30;2.80;;;11.00;99.90;;;;;;4919399;29;20052;-65
2022/11/08 05:54:21;;;;;;;10.32;2.60;;;10.90;99.90;;;;;;4912545;29;20130;-68
2022/11/08 05:56:46;;;;;;;12.13;2.80;;;10.90;99.90;;;;;;4913982;29;20044;-66
2022/11/08 05:59:12;;;;;;;9.75;2.85;;;10.90;99.90;;;;;;4916381;29;20123;-68
2022/11/08 06:01:38;;;;;;;10.27;2.58;;;10.90;99.90;;;;;;4917317;29;20048;-64
2022/11/08 06:04:04;;;;;;;8.73;3.00;;;10.90;99.90;;;;;;4916662;29;20052;-68
2022/11/08 06:06:30;;;;;;;9.45;2.95;;;10.80;99.90;;;;;;4911318;28;20087;-67
2022/11/08 06:08:55;;;;;;;10.38;2.58;;;10.80;99.90;;;;;;4939558;28;20080;-68
2022/11/08 06:11:23;;;;;;;10.38;2.63;;;10.80;99.90;;;;;;4936741;28;20051;-67
2022/11/08 06:13:50;;;;;;;9.82;2.97;;;10.80;99.90;;;;;;4935821;28;20262;-68
2022/11/08 06:16:20;;;;;;;8.52;2.72;;;10.80;99.90;;;;;;4935949;28;20173;-67
2022/11/08 06:18:46;;;;;;;10.10;2.72;;;10.80;99.90;;;;;;4932844;29;20525;-68
2022/11/08 06:21:14;;;;;;;6.88;2.30;;;10.80;99.90;;;;;;4937361;28;20087;-67
2022/11/08 06:23:40;;;;;;;12.30;2.78;;;10.80;99.90;;;;;;4939181;28;20050;-67
2022/11/08 06:26:07;;;;;;;10.48;2.50;;;10.90;99.90;;;;;;4936571;28;20175;-68
2022/11/08 06:28:33;;;;;;;10.65;3.03;;;10.90;99.90;;;;;;4933685;28;20230;-67
2022/11/08 06:31:00;;;;;;;8.65;2.30;;;10.90;99.90;;;;;;4927290;28;20144;-66
2022/11/08 06:33:26;;;;;;;8.07;2.35;;;10.90;99.90;;;;;;4936197;28;20100;-68
2022/11/08 06:35:52;;;;;;;8.75;2.63;;;10.90;99.90;;;;;;4936199;28;20387;-68
2022/11/08 06:38:18;;;;;;;11.18;2.45;;;10.90;99.90;;;;;;4934711;28;20050;-67
2022/11/08 06:40:44;;;;;;;6.93;2.50;;;10.90;99.90;;;;;;4941961;28;20063;-68
2022/11/08 06:43:13;;;;;;;11.10;2.55;;;10.90;99.90;;;;;;4936372;28;20047;-68
2022/11/08 06:45:39;;;;;;;9.25;2.65;;;10.90;99.90;;;;;;4937066;28;20043;-66
2022/11/08 06:48:06;;;;;;;8.82;2.38;;;10.90;99.90;;;;;;4933098;29;20278;-68
2022/11/08 06:50:33;;;;;;;7.32;2.20;;;10.90;99.90;;;;;;4941676;28;20122;-64
2022/11/08 06:53:02;;;;;;;9.82;2.60;;;10.90;99.90;;;;;;4936792;28;20211;-68
2022/11/08 06:55:28;;;;;;;6.25;2.65;;;11.00;99.90;;;;;;4942173;28;20549;-68
2022/11/08 06:57:53;;;;;;;5.13;1.98;;;10.90;99.90;;;;;;4934322;29;20055;-66
2022/11/08 07:00:20;;;;;;;9.35;2.55;;;11.00;99.90;;;;;;4941015;28;20401;-66
2022/11/08 07:02:52;;;;;;;7.43;2.40;;;10.90;99.90;;;;;;4939575;29;20043;-66
2022/11/08 07:05:18;;;;;;;12.70;2.70;;;11.00;99.90;;;;;;4942210;28;20059;-66
2022/11/08 07:07:44;;;;;;;7.00;2.35;;;11.00;99.90;;;;;;4931414;29;20366;-66
2022/11/08 07:10:10;;;;;;;7.75;2.53;;;11.00;99.90;;;;;;4936871;29;20051;-66
2022/11/08 07:12:36;;;;;;;9.32;3.03;;;11.00;99.90;;;;;;4944093;28;20052;-66
2022/11/08 07:15:02;;;;;;;5.22;2.20;;;11.10;99.90;;;;;;4934020;28;20501;-65
2022/11/08 07:17:28;;;;;;;8.88;2.50;;;11.10;99.90;;;;;;4938245;28;20044;-62
2022/11/08 07:19:53;;;;;;;9.52;2.40;;;11.10;99.90;;;;;;4939312;29;20050;-62
2022/11/08 07:22:19;;;;;;;5.72;2.53;;;11.10;99.90;;;;;;4941549;28;20054;-62
2022/11/08 07:24:45;;;;;;;9.80;2.63;;;11.20;99.90;;;;;;4939258;29;20052;-62
2022/11/08 07:27:10;;;;;;;9.57;2.65;;;11.20;99.90;;;;;;4942159;28;20130;-62
2022/11/08 07:29:36;;;;;;;5.75;2.15;;;11.20;99.90;;;;;;4947534;28;20063;-62
2022/11/08 07:32:02;;;;;;;9.05;2.33;;;11.30;99.90;;;;;;4936978;28;20044;-62
2022/11/08 07:34:29;;;;;;;5.40;2.45;;;11.30;99.90;;;;;;4936751;29;20047;-62
2022/11/08 07:36:55;;;;;;;6.50;2.30;;;11.30;99.90;;;;;;4931426;29;20057;-62
2022/11/08 07:39:21;;;;;;;6.50;2.20;;;11.30;99.90;;;;;;4920843;29;20035;-62
2022/11/08 07:41:47;;;;;;;7.60;2.40;;;11.30;99.90;;;;;;4937127;29;20059;-62
2022/11/08 07:44:13;;;;;;;9.45;2.35;;;11.40;99.90;;;;;;4929792;29;20067;-62
2022/11/08 07:46:39;;;;;;;6.45;2.63;;;11.40;99.90;;;;;;4935380;28;20066;-62
2022/11/08 07:49:04;;;;;;;8.02;2.38;;;11.40;99.90;;;;;;4945343;29;20063;-61
2022/11/08 07:51:30;;;;;;;9.02;2.50;;;11.40;99.90;;;;;;4948691;28;20054;-62
2022/11/08 07:53:56;;;;;;;6.10;2.47;;;11.40;99.90;;;;;;4935705;29;20055;-62
2022/11/08 07:56:22;;;;;;;7.80;2.30;;;11.50;99.90;;;;;;4943059;29;20882;-62
2022/11/08 07:58:47;;;;;;;6.10;2.20;;;11.50;99.90;;;;;;4938016;29;20054;-62
2022/11/08 08:01:13;;;;;;;6.97;2.35;;;11.50;99.90;;;;;;4936925;29;20047;-62
2022/11/08 08:03:39;;;;;;;4.68;2.30;;;11.50;99.90;;;;;;4949750;29;20110;-62
2022/11/08 08:06:05;;;;;;;9.57;2.33;;;11.60;99.90;;;;;;4937236;28;20060;-62
2022/11/08 08:08:31;;;;;;;8.18;2.42;;;11.60;99.90;;;;;;4923065;29;20536;-62
2022/11/08 08:11:01;;;;;;;6.78;2.50;;;11.70;99.90;;;;;;4892786;29;20040;-62
2022/11/08 08:13:27;;;;;;;8.52;2.63;;;11.70;99.90;;;;;;4914671;29;20131;-62
2022/11/08 08:15:57;;;;;;;8.93;2.30;;;11.80;99.90;;;;;;4892132;29;20499;-62
2022/11/08 08:18:23;;;;;;;6.22;2.35;;;11.80;99.90;;;;;;4914957;29;20074;-62
2022/11/08 08:20:49;;;;;;;6.07;2.17;;;11.90;99.90;;;;;;4921189;29;20044;-62
2022/11/08 08:23:14;;;;;;;8.48;2.10;;;11.90;99.90;;;;;;4914431;29;20127;-62
2022/11/08 08:25:40;;;;;;;6.25;2.03;;;11.90;99.90;;;;;;4903526;29;20408;-62
2022/11/08 08:28:06;;;;;;;7.22;1.98;;;12.00;99.90;;;;;;4904247;29;20055;-62
2022/11/08 08:30:33;;;;;;;6.90;2.33;;;12.00;99.90;;;;;;4892411;29;20053;-62
2022/11/08 08:33:11;;;;;;;7.90;2.33;;;12.00;99.90;;;;;;4918519;29;20103;-62
2022/11/08 08:35:38;;;;;;;6.90;2.53;;;12.00;99.90;;;;;;4922975;29;20062;-62
2022/11/08 08:38:05;;;;;;;3.88;2.05;;;12.00;99.90;;;;;;4921200;29;20046;-62
2022/11/08 08:40:32;;;;;;;5.45;2.20;;;12.00;99.90;;;;;;4886399;29;20055;-62
2022/11/08 08:42:59;;;;;;;7.20;2.35;;;12.10;99.90;;;;;;4921888;29;20036;-63
2022/11/08 08:45:26;;;;;;;4.13;2.03;;;12.10;99.90;;;;;;4923135;29;20055;-62
2022/11/08 08:47:53;;;;;;;6.32;2.17;;;12.10;99.90;;;;;;4921992;29;20047;-62
2022/11/08 08:50:20;;;;;;;5.10;2.20;;;12.20;99.90;;;;;;4922819;29;20075;-63
2022/11/08 08:52:46;;;;;;;5.97;2.47;;;12.20;99.90;;;;;;4919899;29;20052;-62
2022/11/08 08:55:13;;;;;;;8.80;2.33;;;12.20;99.90;;;;;;4901098;29;20597;-62
2022/11/08 08:57:45;;;;;;;6.57;2.40;;;12.30;99.90;;;;;;4913527;29;20414;-62
2022/11/08 09:00:12;;;;;;;7.03;2.25;;;12.30;99.90;;;;;;4919941;29;20072;-62
2022/11/08 09:02:38;;;;;;;6.75;2.40;;;12.30;99.90;;;;;;4896342;29;20107;-62
2022/11/08 09:05:04;;;;;;;9.82;2.00;;;12.40;99.90;;;;;;4921884;29;20052;-62
2022/11/08 09:07:30;;;;;;;4.55;2.15;;;12.40;99.90;;;;;;4941774;29;20438;-62
2022/11/08 09:09:56;;;;;;;6.82;2.38;;;12.50;99.90;;;;;;4939892;29;20118;-62
2022/11/08 09:12:22;;;;;;;4.30;2.00;;;12.60;99.90;;;;;;4946966;29;20087;-63
2022/11/08 09:14:47;;;;;;;5.65;2.35;;;12.60;99.90;;;;;;4947909;29;20437;-62
2022/11/08 09:17:13;;;;;;;4.20;2.50;;;12.60;99.90;;;;;;4948714;29;20048;-62
2022/11/08 09:19:39;;;;;;;3.90;2.15;;;12.70;99.90;;;;;;4942030;29;20086;-62
2022/11/08 09:22:05;;;;;;;7.38;2.50;;;12.70;99.90;;;;;;4940203;28;20122;-62
2022/11/08 09:24:33;;;;;;;6.70;2.28;;;12.70;99.90;;;;;;4941023;29;20043;-62
2022/11/08 09:27:02;;;;;;;5.85;2.22;;;12.70;99.90;;;;;;4944105;29;20075;-62
2022/11/08 09:29:32;;;;;;;7.75;2.45;;;12.70;99.90;;;;;;4947047;29;20134;-62
2022/11/08 09:31:58;;;;;;;4.53;2.22;;;12.80;99.90;;;;;;4947926;29;20481;-62
2022/11/08 09:34:24;;;;;;;5.07;2.70;;;12.80;99.90;;;;;;4946760;29;20196;-62
2022/11/08 09:36:50;;;;;;;5.65;2.35;;;12.80;99.90;;;;;;4940115;29;20134;-62
2022/11/08 09:39:16;;;;;;;5.80;2.30;;;12.90;99.90;;;;;;4936666;29;20076;-62
2022/11/08 09:41:44;;;;;;;7.50;3.08;;;12.90;99.90;;;;;;4939276;29;20126;-62
2022/11/08 09:44:16;;;;;;;8.40;2.20;;;13.00;99.90;;;;;;4939533;28;20043;-63
2022/11/08 09:47:22;;;;;;;7.85;2.60;;;13.00;99.90;;;;;;4943332;29;20047;-62
2022/11/08 09:49:55;;;;;;;3.95;2.15;;;13.10;99.90;;;;;;4925855;29;20051;-62
2022/11/08 09:52:24;;;;;;;4.50;1.90;;;13.10;99.90;;;;;;4933568;29;20106;-62
2022/11/08 09:54:58;;;;;;;5.70;2.00;;;13.10;99.90;;;;;;4942710;29;20102;-62
2022/11/08 09:57:29;;;;;;;4.47;1.83;;;13.20;99.90;;;;;;4940187;29;20051;-62
2022/11/08 10:00:05;;;;;;;7.40;2.15;;;13.30;99.90;;;;;;4943324;29;20110;-62
2022/11/08 10:02:33;;;;;;;4.93;2.40;;;13.30;99.90;;;;;;4945730;29;20047;-62
2022/11/08 10:05:11;;;;;;;8.20;2.35;;;13.40;99.90;;;;;;4938246;28;20051;-62
2022/11/08 10:07:59;;;;;;;6.05;2.30;;;13.40;99.90;;;;;;4940002;28;20510;-62
2022/11/08 10:10:35;;;;;;;5.43;1.90;;;13.40;99.90;;;;;;4942289;29;20054;-62
2022/11/08 10:13:26;;;;;;;5.15;2.03;;;13.40;99.90;;;;;;4938414;28;20050;-62
2022/11/08 10:16:05;;;;;;;4.95;2.00;;;13.40;99.90;;;;;;4941092;29;20494;-62
2022/11/08 10:18:56;;;;;;;4.38;2.17;;;13.40;99.90;;;;;;4937437;29;20071;-62
2022/11/08 10:21:43;;;;;;;9.27;2.33;;;13.40;99.90;;;;;;4951685;28;20481;-62
2022/11/08 10:24:20;;;;;;;5.63;2.25;;;13.50;99.90;;;;;;4939593;28;20156;-62
2022/11/08 10:26:49;;;;;;;6.15;1.90;;;13.50;99.90;;;;;;4939448;28;20134;-62
2022/11/08 10:29:35;;;;;;;4.32;2.20;;;13.50;99.90;;;;;;4937581;29;20047;-62
2022/11/08 10:32:23;;;;;;;6.50;2.35;;;13.50;99.90;;;;;;4937752;29;20243;-62
2022/11/08 10:35:07;;;;;;;4.05;2.13;;;13.50;99.90;;;;;;4944327;29;20047;-62
2022/11/08 10:37:33;;;;;;;4.10;1.90;;;13.50;99.90;;;;;;4937664;28;20047;-62
2022/11/08 10:40:45;;;;;;;3.45;1.90;;;13.50;99.90;;;;;;4939837;29;20047;-62
2022/11/08 10:43:18;;;;;;;5.57;2.17;;;13.60;99.90;;;;;;4912599;29;20048;-62
2022/11/08 10:45:44;;;;;;;6.07;2.05;;;13.60;99.90;;;;;;4941336;28;20081;-62
2022/11/08 10:48:13;;;;;;;5.13;2.00;;;13.60;99.90;;;;;;4933152;29;20082;-62
2022/11/08 10:50:45;;;;;;;5.10;2.15;;;13.50;99.90;;;;;;4941141;29;20052;-62
2022/11/08 10:53:18;;;;;;;3.90;1.92;;;13.50;99.90;;;;;;4942284;29;20122;-62
2022/11/08 10:55:50;;;;;;;4.43;2.05;;;13.50;99.90;;;;;;4942756;29;20055;-62
2022/11/08 10:58:35;;;;;;;4.63;2.08;;;13.50;99.90;;;;;;4940317;28;20051;-62
2022/11/08 11:01:22;;;;;;;4.15;2.10;;;13.50;99.90;;;;;;4940906;29;20062;-62
2022/11/08 11:03:50;;;;;;;8.27;2.22;;;13.50;99.90;;;;;;4937811;28;20176;-62
2022/11/08 11:06:26;;;;;;;3.00;1.80;;;13.50;99.90;;;;;;4935822;29;20118;-63
2022/11/08 11:08:57;;;;;;;4.70;1.83;;;13.40;99.90;;;;;;4919143;29;20052;-62
2022/11/08 11:11:31;;;;;;;7.68;2.30;;;13.50;99.90;;;;;;4919286;29;20158;-63
2022/11/08 11:14:06;;;;;;;4.97;2.25;;;13.50;99.90;;;;;;4921267;29;20567;-62
2022/11/08 11:16:34;;;;;;;4.43;1.67;;;13.60;99.90;;;;;;4916333;29;20040;-62
2022/11/08 11:19:02;;;;;;;8.27;2.20;;;13.60;99.90;;;;;;4919114;29;20067;-62
2022/11/08 11:21:38;;;;;;;4.03;2.17;;;13.70;99.90;;;;;;4894715;29;20118;-65
2022/11/08 11:24:16;;;;;;;4.60;2.20;;;13.70;99.90;;;;;;4899848;29;20051;-65
2022/11/08 11:27:02;;;;;;;4.35;2.35;;;13.70;99.90;;;;;;4903353;29;20127;-65
2022/11/08 11:29:36;;;;;;;7.40;2.10;;;13.70;99.90;;;;;;4902520;29;20063;-65
2022/11/08 11:32:31;;;;;;;4.28;2.30;;;13.70;99.90;;;;;;4915206;29;20106;-65
2022/11/08 11:35:02;;;;;;;5.97;2.35;;;13.80;99.90;;;;;;4894649;29;20522;-65
2022/11/08 11:37:45;;;;;;;4.43;2.30;;;13.90;99.90;;;;;;4906648;29;20125;-65
2022/11/08 11:40:42;;;;;;;3.72;1.77;;;14.00;99.90;;;;;;4915308;29;20086;-65
2022/11/08 11:43:15;;;;;;;3.60;1.83;;;14.10;99.90;;;;;;4919272;29;20122;-65
2022/11/08 11:46:12;;;;;;;3.85;1.77;;;14.10;99.90;;;;;;4904048;29;20078;-65
2022/11/08 11:48:44;;;;;;;4.25;1.90;;;14.20;99.90;;;;;;4914122;29;20143;-65
2022/11/08 11:51:10;;;;;;;10.25;2.38;;;14.20;99.90;;;;;;4913836;29;20048;-66
2022/11/08 11:53:37;;;;;;;4.32;1.70;;;14.20;99.90;;;;;;4912238;29;20099;-65
2022/11/08 11:56:29;;;;;;;3.95;1.85;;;14.20;99.90;;;;;;4902705;29;20052;-66
2022/11/08 11:58:58;;;;;;;7.45;1.83;;;14.20;99.90;;;;;;4905589;29;20059;-65
2022/11/08 12:01:37;;;;;;;6.72;2.10;;;14.20;99.90;;;;;;4910425;29;20039;-65
2022/11/08 12:04:03;;;;;;;3.72;1.88;;;14.20;99.90;;;;;;4916985;29;20058;-65
2022/11/08 12:06:53;;;;;;;6.28;1.80;;;14.20;99.90;;;;;;4911362;29;20052;-66
2022/11/08 12:09:47;;;;;;;3.85;1.67;;;14.40;99.90;;;;;;4911947;29;20047;-66
2022/11/08 12:12:15;;;;;;;3.38;1.85;;;14.40;99.90;;;;;;4909440;29;20055;-66
2022/11/08 12:15:07;;;;;;;4.57;2.00;;;14.50;99.90;;;;;;4896037;29;20056;-66
2022/11/08 12:17:54;;;;;;;5.53;2.13;;;14.50;99.90;;;;;;4911617;29;20048;-66
2022/11/08 12:20:40;;;;;;;3.40;1.98;;;14.50;99.90;;;;;;4914825;29;20072;-65
2022/11/08 12:23:28;;;;;;;4.82;1.90;;;14.60;99.90;;;;;;4909197;29;20063;-66
2022/11/08 12:26:06;;;;;;;2.95;1.95;;;14.60;99.90;;;;;;4895686;29;20087;-65
2022/11/08 12:28:59;;;;;;;7.55;2.13;;;14.60;99.90;;;;;;4906093;29;20399;-65
2022/11/08 12:31:28;;;;;;;3.58;1.67;;;14.60;99.90;;;;;;4904674;29;20051;-65
2022/11/08 12:34:17;;;;;;;4.28;2.00;;;14.60;99.90;;;;;;4903191;29;20047;-66
2022/11/08 12:37:19;;;;;;;5.07;2.20;;;14.70;99.90;;;;;;4910073;29;20405;-66
2022/11/08 12:39:52;;;;;;;7.10;2.47;;;14.70;99.90;;;;;;4910824;29;20058;-68
2022/11/08 12:42:26;;;;;;;3.22;1.80;;;14.80;99.90;;;;;;4917479;29;20179;-65
2022/11/08 12:45:11;;;;;;;7.82;2.13;;;14.90;99.90;;;;;;4906769;29;20048;-65
2022/11/08 12:47:43;;;;;;;3.78;2.08;;;14.90;99.90;;;;;;4904960;29;20158;-65
2022/11/08 12:50:16;;;;;;;6.35;1.77;;;15.00;99.90;;;;;;4910906;29;20052;-66
2022/11/08 12:53:00;;;;;;;5.68;2.25;;;15.10;99.90;;;;;;4903333;29;20167;-65
2022/11/08 12:55:33;;;;;;;5.28;2.35;;;15.10;99.90;;;;;;4904536;29;20039;-65
2022/11/08 12:58:04;;;;;;;6.10;1.80;;;15.10;99.90;;;;;;4903251;29;20048;-65
2022/11/08 13:00:31;;;;;;;7.13;2.13;;;15.20;99.90;;;;;;4906197;29;20051;-65
2022/11/08 13:03:20;;;;;;;4.03;2.00;;;15.20;99.90;;;;;;4895576;29;20044;-66
2022/11/08 13:05:59;;;;;;;6.50;2.22;;;15.20;99.90;;;;;;4899084;29;20052;-65
2022/11/08 13:08:48;;;;;;;3.13;1.80;;;15.10;99.90;;;;;;4933852;29;20063;-65
2022/11/08 13:11:29;;;;;;;3.55;1.67;;;15.10;99.90;;;;;;4943787;29;20057;-66
2022/11/08 13:13:59;;;;;;;7.35;1.75;;;15.10;99.90;;;;;;4942861;29;20062;-66
2022/11/08 13:16:27;;;;;;;4.38;2.20;;;15.00;99.90;;;;;;4942620;28;20067;-66
2022/11/08 13:18:58;;;;;;;3.47;1.60;;;15.00;99.90;;;;;;4933353;28;20474;-66
2022/11/08 13:21:27;;;;;;;6.05;2.08;;;15.00;99.90;;;;;;4936165;28;20079;-66
2022/11/08 13:24:16;;;;;;;10.13;1.80;;;15.10;99.90;;;;;;4938357;28;20044;-66
2022/11/08 13:26:45;;;;;;;3.70;1.77;;;15.10;99.90;;;;;;4925466;28;20054;-66